Time;durP1;ratioP1;P1;durP2;ratioP2;P2;SDS_P1;SDS_P2;PMS_P1;PMS_P2;Temp;Humidity;BMP_temperature;BMP_pressure;BME280_temperature;BME280_humidity;BME280_pressure;Samples;Min_cycle;Max_cycle;Signal;HPM_P1;HPM_P2
2020/12/17 00:02:20;;;;;;;21.60;8.88;;;;;;;6.71;100.00;100752.06;5072904;28;20043;-65
2020/12/17 00:05:04;;;;;;;20.35;9.23;;;;;;;6.66;100.00;100755.03;5072733;28;20078;-65
2020/12/17 00:07:48;;;;;;;34.97;9.25;;;;;;;6.64;100.00;100746.34;5043781;28;20055;-65
2020/12/17 00:10:32;;;;;;;14.95;8.55;;;;;;;6.59;100.00;100748.47;5057718;28;20546;-65
2020/12/17 00:13:15;;;;;;;11.95;8.90;;;;;;;6.57;100.00;100750.38;5057515;28;20520;-65
2020/12/17 00:15:59;;;;;;;19.45;9.63;;;;;;;6.58;100.00;100751.22;5076578;28;20046;-65
2020/12/17 00:18:43;;;;;;;57.80;11.63;;;;;;;6.62;100.00;100752.69;5076332;28;20558;-65
2020/12/17 00:21:27;;;;;;;13.65;9.18;;;;;;;6.57;100.00;100745.06;5061100;28;20098;-65
2020/12/17 00:24:11;;;;;;;11.75;8.70;;;;;;;6.53;100.00;100738.31;5076385;28;20047;-65
2020/12/17 00:26:56;;;;;;;53.80;11.07;;;;;;;6.57;100.00;100737.13;5061044;28;20129;-65
2020/12/17 00:29:40;;;;;;;15.18;8.52;;;;;;;6.50;100.00;100738.53;5076295;28;20040;-65
2020/12/17 00:32:24;;;;;;;22.15;8.88;;;;;;;6.44;100.00;100741.59;5061106;28;20416;-66
2020/12/17 00:35:09;;;;;;;13.70;9.48;;;;;;;6.39;100.00;100738.44;5076158;28;20459;-65
2020/12/17 00:37:53;;;;;;;61.88;10.77;;;;;;;6.34;100.00;100732.59;5075793;28;20102;-65
2020/12/17 00:40:37;;;;;;;35.45;10.10;;;;;;;6.30;100.00;100730.25;5060535;28;20052;-66
2020/12/17 00:43:21;;;;;;;13.30;9.20;;;;;;;6.26;100.00;100734.91;5076298;28;20071;-65
2020/12/17 00:46:05;;;;;;;85.93;12.50;;;;;;;6.23;100.00;100737.78;5076020;28;20139;-66
2020/12/17 00:48:50;;;;;;;65.40;10.05;;;;;;;6.22;100.00;100733.44;5075602;28;20063;-65
2020/12/17 00:51:34;;;;;;;75.47;12.60;;;;;;;6.14;100.00;100740.22;5060922;28;20135;-66
2020/12/17 00:54:18;;;;;;;14.30;9.18;;;;;;;6.01;100.00;100739.34;5046911;28;20067;-65
2020/12/17 00:57:02;;;;;;;11.95;8.13;;;;;;;5.94;100.00;100738.09;5075487;28;20102;-65
2020/12/17 00:59:46;;;;;;;14.13;9.73;;;;;;;5.87;100.00;100745.56;5075393;28;20047;-65
2020/12/17 01:02:30;;;;;;;16.00;9.13;;;;;;;5.84;100.00;100747.59;5075422;28;20109;-65
2020/12/17 01:05:15;;;;;;;39.72;10.55;;;;;;;5.81;100.00;100739.84;5060364;28;20098;-65
2020/12/17 01:07:59;;;;;;;124.15;15.13;;;;;;;5.73;100.00;100745.63;5075487;28;20090;-67
2020/12/17 01:10:42;;;;;;;85.68;12.93;;;;;;;5.70;100.00;100750.25;5060158;28;20040;-67
2020/12/17 01:13:26;;;;;;;37.35;9.40;;;;;;;5.61;100.00;100749.09;5075221;28;20090;-65
2020/12/17 01:16:10;;;;;;;21.85;9.25;;;;;;;5.58;100.00;100751.94;5075458;28;20552;-65
2020/12/17 01:18:54;;;;;;;42.00;9.50;;;;;;;5.61;100.00;100757.03;5059740;28;20094;-67
2020/12/17 01:21:38;;;;;;;27.90;9.13;;;;;;;5.62;100.00;100758.72;5075058;28;20056;-67
2020/12/17 01:24:22;;;;;;;93.72;12.55;;;;;;;5.62;100.00;100756.06;5074571;28;20063;-65
2020/12/17 01:27:06;;;;;;;137.75;13.68;;;;;;;5.59;100.00;100761.56;5059735;28;20515;-65
2020/12/17 01:29:50;;;;;;;100.88;12.93;;;;;;;5.63;100.00;100764.88;5074851;28;20039;-65
2020/12/17 01:32:35;;;;;;;44.63;10.35;;;;;;;5.58;100.00;100767.81;5059946;28;20147;-65
2020/12/17 01:35:20;;;;;;;236.82;19.38;;;;;;;5.63;100.00;100768.34;5059884;28;20051;-66
2020/12/17 01:38:04;;;;;;;133.60;15.02;;;;;;;5.56;100.00;100776.78;5059721;28;20416;-65
2020/12/17 01:40:48;;;;;;;35.25;9.18;;;;;;;5.51;100.00;100777.09;5074851;28;20047;-66
2020/12/17 01:43:43;;;;;;;144.93;13.10;;;;;;;5.59;100.00;100768.66;5074893;28;20083;-67
2020/12/17 01:46:27;;;;;;;80.43;12.18;;;;;;;5.56;100.00;100774.97;5045398;28;20127;-67
2020/12/17 01:49:13;;;;;;;96.85;10.70;;;;;;;5.55;100.00;100777.75;5059639;28;20044;-67
2020/12/17 01:51:57;;;;;;;80.28;10.50;;;;;;;5.49;100.00;100771.06;5059312;28;20115;-67
2020/12/17 01:54:53;;;;;;;145.50;12.45;;;;;;;5.36;100.00;100775.44;5059476;28;20197;-67
2020/12/17 01:57:41;;;;;;;189.35;17.38;;;;;;;5.30;100.00;100774.97;5059173;28;20055;-67
2020/12/17 02:00:25;;;;;;;110.20;11.45;;;;;;;5.23;100.00;100771.88;5074193;28;20476;-67
2020/12/17 02:03:09;;;;;;;177.98;14.05;;;;;;;5.25;100.00;100782.38;5074500;28;20091;-67
2020/12/17 02:05:52;;;;;;;113.32;13.85;;;;;;;5.15;100.00;100779.44;5045003;28;20094;-67
2020/12/17 02:08:38;;;;;;;115.95;13.48;;;;;;;5.12;100.00;100781.47;5059163;28;20460;-67
2020/12/17 02:11:22;;;;;;;51.15;9.23;;;;;;;5.11;100.00;100785.88;5059214;28;20530;-67
2020/12/17 02:14:06;;;;;;;80.75;10.77;;;;;;;5.10;100.00;100780.69;5059121;28;20051;-67
2020/12/17 02:16:50;;;;;;;95.20;12.32;;;;;;;5.02;100.00;100786.47;5073769;28;20047;-67
2020/12/17 02:19:34;;;;;;;27.83;9.75;;;;;;;4.95;100.00;100793.06;5074266;28;20110;-67
2020/12/17 02:22:19;;;;;;;89.00;12.68;;;;;;;4.92;100.00;100791.59;5059006;28;20102;-67
2020/12/17 02:25:06;;;;;;;58.03;11.00;;;;;;;4.85;100.00;100785.84;5058859;28;20051;-67
2020/12/17 02:27:50;;;;;;;67.20;12.25;;;;;;;4.76;100.00;100788.22;5073925;28;20093;-67
2020/12/17 02:30:34;;;;;;;;;;;;;;;4.69;100.00;100786.88;5045232;28;20501;-65
2020/12/17 02:33:18;;;;;;;24.98;7.75;;;;;;;4.65;100.00;100790.66;5058693;28;19919;-67
2020/12/17 02:36:02;;;;;;;27.00;9.73;;;;;;;4.64;100.00;100791.59;5058248;28;20093;-67
2020/12/17 02:38:47;;;;;;;125.38;14.90;;;;;;;4.58;100.00;100784.06;5058362;28;20059;-67
2020/12/17 02:41:30;;;;;;;85.05;12.35;;;;;;;4.56;100.00;100783.31;5073562;28;20047;-67
2020/12/17 02:44:14;;;;;;;54.33;10.07;;;;;;;4.54;100.00;100779.91;5073807;28;20078;-67
2020/12/17 02:46:58;;;;;;;100.72;12.90;;;;;;;4.52;100.00;100773.88;5073708;28;20048;-66
2020/12/17 02:49:43;;;;;;;41.50;9.43;;;;;;;4.59;100.00;100767.28;5058335;28;20118;-67
2020/12/17 02:52:27;;;;;;;22.75;9.25;;;;;;;4.56;100.00;100772.75;5058682;28;20048;-67
2020/12/17 02:55:11;;;;;;;43.35;10.43;;;;;;;4.60;100.00;100779.53;5058528;28;20055;-67
2020/12/17 02:57:56;;;;;;;88.75;12.98;;;;;;;4.48;100.00;100773.19;5073237;28;20105;-67
2020/12/17 03:00:40;;;;;;;19.13;9.32;;;;;;;4.42;100.00;100781.50;5073327;28;20048;-67
2020/12/17 03:03:24;;;;;;;26.30;8.38;;;;;;;4.39;100.00;100780.84;5073283;28;20111;-67
2020/12/17 03:06:08;;;;;;;48.97;9.82;;;;;;;4.32;100.00;100785.66;5058342;28;20059;-67
2020/12/17 03:08:51;;;;;;;51.75;11.90;;;;;;;4.30;100.00;100776.13;5073153;28;20051;-67
2020/12/17 03:11:35;;;;;;;29.48;8.82;;;;;;;4.29;100.00;100790.25;5073257;28;20054;-67
2020/12/17 03:14:20;;;;;;;12.68;8.00;;;;;;;4.17;100.00;100796.28;5073437;28;20050;-66
2020/12/17 03:19:49;;;;;;;15.27;8.60;;;;;;;3.98;100.00;100785.94;5010630;28;20123;-67
2020/12/17 03:22:34;;;;;;;10.85;7.82;;;;;;;3.96;100.00;100792.28;4985191;28;20060;-67
2020/12/17 03:25:18;;;;;;;25.30;8.80;;;;;;;3.93;100.00;100792.44;4998627;28;20514;-67
2020/12/17 03:28:02;;;;;;;28.13;9.65;;;;;;;3.89;100.00;100793.56;5013508;28;20549;-67
2020/12/17 03:30:46;;;;;;;11.70;8.05;;;;;;;3.85;100.00;100794.69;5013850;28;20072;-67
2020/12/17 03:33:31;;;;;;;14.13;8.55;;;;;;;3.89;100.00;100785.66;5013439;28;20096;-67
2020/12/17 03:36:15;;;;;;;13.55;9.52;;;;;;;3.95;100.00;100787.94;4998412;28;20144;-67
2020/12/17 03:38:59;;;;;;;15.35;9.38;;;;;;;3.90;100.00;100782.06;5013160;28;20044;-67
2020/12/17 03:41:43;;;;;;;14.40;9.63;;;;;;;3.87;100.00;100779.63;5013524;28;20089;-67
2020/12/17 03:44:27;;;;;;;17.73;8.50;;;;;;;3.81;100.00;100778.19;5013510;28;20501;-67
2020/12/17 03:47:12;;;;;;;11.85;7.65;;;;;;;3.75;100.00;100782.97;4998503;28;20131;-67
2020/12/17 03:49:56;;;;;;;16.75;10.10;;;;;;;3.71;100.00;100781.44;5002481;28;20076;-67
2020/12/17 03:52:40;;;;;;;13.48;9.15;;;;;;;3.67;100.00;100782.56;5017317;28;20057;-67
2020/12/17 03:55:24;;;;;;;12.57;8.98;;;;;;;3.68;100.00;100781.63;5002135;28;20061;-67
2020/12/17 03:58:08;;;;;;;18.08;9.82;;;;;;;3.64;100.00;100780.13;5016848;28;20052;-67
2020/12/17 04:00:52;;;;;;;14.98;10.00;;;;;;;3.71;100.00;100777.03;5002224;28;20131;-67
2020/12/17 04:03:36;;;;;;;14.23;9.88;;;;;;;3.73;100.00;100779.56;4988493;28;20199;-67
2020/12/17 04:06:19;;;;;;;15.43;9.90;;;;;;;3.75;100.00;100770.63;5016936;28;20045;-67
2020/12/17 04:09:04;;;;;;;14.77;9.40;;;;;;;3.84;100.00;100774.53;5002128;28;20048;-67
2020/12/17 04:11:48;;;;;;;14.35;9.10;;;;;;;3.87;100.00;100782.25;5001793;28;20073;-67
2020/12/17 04:14:32;;;;;;;13.80;9.43;;;;;;;3.79;100.00;100784.50;5002395;28;20100;-68
2020/12/17 04:17:16;;;;;;;13.60;9.15;;;;;;;3.78;100.00;100788.94;5001626;28;20553;-68
2020/12/17 04:20:00;;;;;;;13.43;8.80;;;;;;;3.75;100.00;100785.63;5016765;28;20068;-68
2020/12/17 04:22:44;;;;;;;13.55;9.55;;;;;;;3.72;100.00;100791.03;5016960;28;20056;-68
2020/12/17 04:25:28;;;;;;;12.82;9.32;;;;;;;3.71;100.00;100797.25;5016729;28;20160;-68
2020/12/17 04:28:12;;;;;;;16.15;10.57;;;;;;;3.71;100.00;100789.34;5001989;28;20105;-68
2020/12/17 04:30:56;;;;;;;11.90;8.90;;;;;;;3.68;100.00;100800.94;5001536;28;20064;-68
2020/12/17 04:33:40;;;;;;;11.52;8.18;;;;;;;3.63;100.00;100804.75;5001446;28;20044;-68
2020/12/17 04:36:25;;;;;;;11.13;7.63;;;;;;;3.57;100.00;100794.56;5001670;28;20055;-68
2020/12/17 04:39:08;;;;;;;12.07;8.05;;;;;;;3.54;100.00;100802.66;5016635;28;20041;-69
2020/12/17 04:41:53;;;;;;;11.77;7.90;;;;;;;3.49;100.00;100797.66;5016137;28;20141;-68
2020/12/17 04:44:37;;;;;;;12.23;8.38;;;;;;;3.48;100.00;100801.22;5001782;28;20133;-68
2020/12/17 04:47:21;;;;;;;12.25;8.60;;;;;;;3.45;100.00;100797.91;5015976;28;20466;-69
2020/12/17 04:50:07;;;;;;;13.23;9.30;;;;;;;3.43;100.00;100813.81;5001437;28;20053;-68
2020/12/17 04:52:52;;;;;;;12.23;8.75;;;;;;;3.42;100.00;100813.88;5001311;28;20184;-68
2020/12/17 04:55:36;;;;;;;10.52;7.47;;;;;;;3.41;100.00;100812.19;5000980;28;20049;-68
2020/12/17 04:58:21;;;;;;;9.35;7.63;;;;;;;3.39;100.00;100812.28;5000958;28;20072;-68
2020/12/17 05:01:06;;;;;;;10.38;7.38;;;;;;;3.37;100.00;100813.31;5000440;28;20049;-67
2020/12/17 05:03:49;;;;;;;11.25;7.90;;;;;;;3.36;100.00;100816.88;5000820;28;20100;-67
2020/12/17 05:06:36;;;;;;;12.55;8.50;;;;;;;3.35;100.00;100815.19;5015755;28;20057;-68
2020/12/17 05:09:21;;;;;;;13.13;8.40;;;;;;;3.35;100.00;100820.47;5000774;28;20152;-67
2020/12/17 05:12:05;;;;;;;11.60;8.82;;;;;;;3.29;100.00;100816.38;5015794;28;20053;-67
2020/12/17 05:14:49;;;;;;;11.23;8.30;;;;;;;3.24;100.00;100822.84;5000746;28;20065;-68
2020/12/17 05:17:33;;;;;;;12.30;8.55;;;;;;;3.19;100.00;100833.63;5000598;28;20099;-68
2020/12/17 05:20:17;;;;;;;14.63;9.95;;;;;;;3.19;100.00;100835.41;5000722;28;20121;-68
2020/12/17 05:23:02;;;;;;;21.10;11.85;;;;;;;3.19;100.00;100830.13;5001155;28;20104;-68
2020/12/17 05:25:46;;;;;;;17.02;10.77;;;;;;;3.18;100.00;100838.97;5000437;28;20044;-68
2020/12/17 05:28:31;;;;;;;12.75;9.07;;;;;;;3.14;100.00;100842.72;5015190;28;20046;-67
2020/12/17 05:31:21;;;;;;;13.50;9.10;;;;;;;3.08;100.00;100850.94;5000634;28;20045;-67
2020/12/17 05:34:06;;;;;;;16.83;9.60;;;;;;;3.05;100.00;100859.03;4986739;28;20076;-67
2020/12/17 05:36:50;;;;;;;13.85;8.60;;;;;;;2.99;100.00;100859.34;5000411;28;20084;-67
2020/12/17 05:39:41;;;;;;;15.10;10.45;;;;;;;2.96;100.00;100864.78;5000210;28;20457;-68
2020/12/17 05:42:29;;;;;;;17.10;10.20;;;;;;;2.95;100.00;100871.81;5014961;28;20421;-68
2020/12/17 05:45:29;;;;;;;31.23;14.20;;;;;;;2.98;100.00;100874.31;5014928;28;20045;-68
2020/12/17 05:48:17;;;;;;;23.10;14.57;;;;;;;3.04;100.00;100873.97;5000264;28;20045;-68
2020/12/17 05:51:02;;;;;;;18.75;11.93;;;;;;;3.05;100.00;100873.03;4999934;28;20135;-67
2020/12/17 05:53:47;;;;;;;27.67;15.57;;;;;;;3.08;100.00;100869.38;4999934;28;20119;-68
2020/12/17 05:56:31;;;;;;;23.73;13.90;;;;;;;3.07;100.00;100883.50;5000037;28;20053;-68
2020/12/17 05:59:22;;;;;;;24.55;14.10;;;;;;;3.05;100.00;100880.94;5014542;28;20096;-68
2020/12/17 06:02:24;;;;;;;21.00;13.65;;;;;;;3.06;100.00;100889.69;5014591;28;20480;-67
2020/12/17 06:05:10;;;;;;;16.67;10.13;;;;;;;3.03;100.00;100895.13;5000201;28;20075;-67
2020/12/17 06:07:59;;;;;;;13.35;9.32;;;;;;;2.96;100.00;100896.38;5014636;28;20123;-67
2020/12/17 06:10:49;;;;;;;15.75;10.45;;;;;;;2.93;100.00;100901.81;4999994;28;20041;-68
2020/12/17 06:13:37;;;;;;;17.08;10.55;;;;;;;2.90;100.00;100896.69;5014640;28;20065;-68
2020/12/17 06:16:24;;;;;;;20.13;11.93;;;;;;;2.87;100.00;100900.38;4999766;28;20104;-67
2020/12/17 06:19:11;;;;;;;20.48;11.90;;;;;;;2.89;100.00;100901.13;4999609;28;20061;-67
2020/12/17 06:21:55;;;;;;;20.75;13.52;;;;;;;2.87;100.00;100903.00;4999636;28;20099;-67
2020/12/17 06:24:40;;;;;;;19.33;13.27;;;;;;;2.92;100.00;100905.41;4999883;28;20044;-67
2020/12/17 06:27:30;;;;;;;23.00;13.52;;;;;;;2.94;100.00;100908.78;4999218;28;20052;-67
2020/12/17 06:30:20;;;;;;;23.02;14.18;;;;;;;3.13;100.00;100914.78;4999524;28;20092;-68
2020/12/17 06:33:06;;;;;;;97.32;17.27;;;;;;;3.23;100.00;100921.25;5014101;28;20509;-67
2020/12/17 06:35:52;;;;;;;60.33;15.35;;;;;;;3.26;100.00;100923.72;5014010;28;20053;-68
2020/12/17 06:38:37;;;;;;;243.65;24.67;;;;;;;3.23;100.00;100919.47;5013923;28;20203;-68
2020/12/17 06:41:23;;;;;;;117.28;18.75;;;;;;;3.29;100.00;100936.72;4999155;28;20121;-68
2020/12/17 06:44:26;;;;;;;91.07;16.33;;;;;;;3.25;100.00;100929.94;5014072;28;20049;-67
2020/12/17 06:47:10;;;;;;;39.78;12.90;;;;;;;3.24;100.00;100938.78;4999479;28;20082;-66
2020/12/17 06:50:28;;;;;;;73.00;15.38;;;;;;;3.29;100.00;100936.72;4985654;28;20052;-66
2020/12/17 06:53:14;;;;;;;20.27;12.70;;;;;;;3.35;100.00;100941.69;4999185;28;20506;-66
2020/12/17 06:55:58;;;;;;;17.40;11.73;;;;;;;3.42;100.00;100945.66;4999116;28;20068;-66
2020/12/17 06:58:43;;;;;;;21.20;13.40;;;;;;;3.50;100.00;100946.97;5013770;28;20049;-66
2020/12/17 07:01:27;;;;;;;21.42;12.77;;;;;;;3.58;100.00;100951.81;4999084;28;20040;-66
2020/12/17 07:04:12;;;;;;;18.75;11.80;;;;;;;3.62;100.00;100956.84;5013869;28;20057;-68
2020/12/17 07:07:17;;;;;;;22.30;14.13;;;;;;;3.75;100.00;100949.94;4999072;28;20104;-67
2020/12/17 07:10:01;;;;;;;21.63;13.38;;;;;;;3.74;100.00;100966.69;5013731;28;20045;-68
2020/12/17 07:12:45;;;;;;;20.17;13.43;;;;;;;3.75;100.00;100960.50;5013808;28;20060;-68
2020/12/17 07:15:34;;;;;;;17.08;11.32;;;;;;;3.77;100.00;100961.25;4999051;28;20100;-68
2020/12/17 07:18:25;;;;;;;16.55;11.02;;;;;;;3.78;100.00;100962.13;4998701;28;20135;-68
2020/12/17 07:21:09;;;;;;;17.30;10.93;;;;;;;3.74;100.00;100957.97;4998835;28;20044;-65
2020/12/17 07:23:53;;;;;;;18.42;10.40;;;;;;;3.71;100.00;100960.75;5013041;28;20052;-68
2020/12/17 07:26:37;;;;;;;18.63;11.70;;;;;;;3.70;100.00;100973.09;4985051;28;20092;-68
2020/12/17 07:29:32;;;;;;;20.08;13.43;;;;;;;3.76;100.00;100970.09;4998665;28;20048;-68
2020/12/17 07:32:39;;;;;;;20.23;12.23;;;;;;;3.73;100.00;100969.41;5013461;28;20418;-68
2020/12/17 07:35:27;;;;;;;15.27;10.35;;;;;;;3.68;100.00;100974.97;5013311;28;20141;-66
2020/12/17 07:38:18;;;;;;;18.90;12.90;;;;;;;3.66;100.00;100970.72;4998593;28;20128;-67
2020/12/17 07:41:02;;;;;;;15.48;10.75;;;;;;;3.64;100.00;100977.84;4998557;28;20133;-67
2020/12/17 07:43:46;;;;;;;23.05;12.82;;;;;;;3.68;100.00;100974.97;4998650;28;20108;-67
2020/12/17 07:46:40;;;;;;;24.50;13.77;;;;;;;3.77;100.00;100978.88;4998669;28;20103;-67
2020/12/17 07:49:30;;;;;;;19.55;12.80;;;;;;;3.89;100.00;100986.09;5013275;28;20399;-67
2020/12/17 07:52:31;;;;;;;26.52;15.13;;;;;;;3.99;100.00;100977.59;4999231;28;20096;-68
2020/12/17 07:55:15;;;;;;;24.60;14.75;;;;;;;4.09;100.00;100989.34;5013140;28;20100;-67
2020/12/17 07:57:59;;;;;;;17.45;11.65;;;;;;;4.17;100.00;100992.38;4998142;28;20112;-67
2020/12/17 08:00:43;;;;;;;17.45;11.88;;;;;;;4.19;100.00;101002.84;5013264;28;20096;-67
2020/12/17 08:03:28;;;;;;;18.73;12.05;;;;;;;4.25;100.00;101010.44;5014003;28;20506;-67
2020/12/17 08:06:15;;;;;;;22.13;11.88;;;;;;;4.28;100.00;101011.09;5013071;28;20045;-66
2020/12/17 08:09:04;;;;;;;25.63;14.55;;;;;;;4.34;100.00;101007.25;4998395;28;20044;-68
2020/12/17 08:11:55;;;;;;;19.98;12.93;;;;;;;4.40;100.00;101009.56;4998080;28;20096;-68
2020/12/17 08:14:39;;;;;;;22.35;13.52;;;;;;;4.45;100.00;100997.78;4998282;28;20068;-68
2020/12/17 08:17:23;;;;;;;16.40;10.65;;;;;;;4.61;100.00;101009.19;5013088;28;20621;-68
2020/12/17 08:20:07;;;;;;;18.38;12.10;;;;;;;4.80;100.00;101011.59;4998268;28;20168;-67
2020/12/17 08:22:54;;;;;;;;;;;;;;;4.98;100.00;101008.69;5013616;28;20052;-68
2020/12/17 08:25:43;;;;;;;22.02;14.70;;;;;;;5.45;100.00;101004.03;5013107;28;20408;-68
2020/12/17 08:28:32;;;;;;;22.08;14.95;;;;;;;6.25;100.00;101005.94;5012992;28;20125;-67
2020/12/17 08:31:21;;;;;;;22.95;14.15;;;;;;;6.79;100.00;101006.75;4997970;28;20048;-68
2020/12/17 08:34:05;;;;;;;21.15;12.43;;;;;;;7.18;100.00;101012.84;5013036;28;20127;-67
2020/12/17 08:36:49;;;;;;;16.35;11.20;;;;;;;7.12;100.00;101010.63;5016291;28;20088;-67
2020/12/17 08:39:33;;;;;;;16.02;10.88;;;;;;;6.99;100.00;101016.88;4987471;28;20081;-68
2020/12/17 08:42:18;;;;;;;16.48;11.45;;;;;;;6.79;100.00;101015.53;5016126;28;20112;-68
2020/12/17 08:45:11;;;;;;;17.05;11.70;;;;;;;6.67;100.00;101032.25;5016311;28;20458;-68
2020/12/17 08:47:58;;;;;;;16.88;10.40;;;;;;;6.67;100.00;101032.25;5001147;28;20084;-68
2020/12/17 08:50:44;;;;;;;16.40;10.48;;;;;;;6.59;100.00;101034.59;5001213;28;20103;-68
2020/12/17 08:53:28;;;;;;;17.98;11.48;;;;;;;6.53;100.00;101044.72;5001346;28;20053;-67
2020/12/17 08:56:23;;;;;;;23.30;11.50;;;;;;;6.65;100.00;101044.75;5001312;28;20104;-67
2020/12/17 08:59:07;;;;;;;19.58;12.25;;;;;;;6.95;100.00;101053.34;4987782;28;20044;-67
2020/12/17 09:01:51;;;;;;;15.40;11.15;;;;;;;7.67;100.00;101058.91;5001475;28;20100;-68
2020/12/17 09:04:35;;;;;;;19.80;12.32;;;;;;;8.62;100.00;101044.91;4987461;28;20461;-68
2020/12/17 09:07:26;;;;;;;13.18;9.82;;;;;;;9.12;88.00;101047.28;5015974;28;20068;-67
2020/12/17 09:10:10;;;;;;;16.45;10.05;;;;;;;8.77;90.12;101049.09;5015902;28;20077;-67
2020/12/17 09:12:55;;;;;;;14.02;10.02;;;;;;;8.21;93.74;101057.69;5001099;28;20136;-67
2020/12/17 09:15:39;;;;;;;15.55;11.10;;;;;;;8.03;97.08;101056.34;5001032;28;20044;-68
2020/12/17 09:18:24;;;;;;;17.45;11.18;;;;;;;8.10;97.43;101057.56;5016807;28;20073;-67
2020/12/17 09:21:08;;;;;;;;;;;;;;;7.91;98.72;101068.66;5015749;28;20100;-67
2020/12/17 09:23:56;;;;;;;18.70;12.55;;;;;;;7.84;100.00;101075.34;5000623;28;20038;-67
2020/12/17 09:26:40;;;;;;;18.90;12.98;;;;;;;7.86;100.00;101080.56;5015550;28;20419;-67
2020/12/17 09:29:24;;;;;;;18.60;12.20;;;;;;;7.70;100.00;101090.53;5000340;28;20084;-67
2020/12/17 09:32:18;;;;;;;21.05;13.73;;;;;;;7.67;100.00;101090.75;4986894;28;20457;-67
2020/12/17 09:35:07;;;;;;;20.15;11.75;;;;;;;7.68;100.00;101081.84;5000474;28;20056;-67
2020/12/17 09:37:59;;;;;;;19.25;12.85;;;;;;;7.84;100.00;101087.78;5015264;28;20053;-67
2020/12/17 09:40:46;;;;;;;16.33;12.15;;;;;;;7.87;100.00;101098.19;5014924;28;20045;-66
2020/12/17 09:43:30;;;;;;;23.70;13.23;;;;;;;8.02;100.00;101105.06;5015496;28;20099;-65
2020/12/17 09:46:14;;;;;;;20.70;11.85;;;;;;;8.13;100.00;101110.50;5000091;28;20108;-67
2020/12/17 09:49:01;;;;;;;18.45;12.48;;;;;;;8.21;100.00;101106.38;5000006;28;20533;-66
2020/12/17 09:51:45;;;;;;;19.52;12.77;;;;;;;8.28;100.00;101104.13;5014748;28;20092;-67
2020/12/17 09:54:30;;;;;;;18.80;12.48;;;;;;;8.42;100.00;101102.16;5014739;28;20052;-67
2020/12/17 09:57:14;;;;;;;16.42;11.77;;;;;;;8.49;100.00;101115.84;5014800;28;20132;-67
2020/12/17 09:59:58;;;;;;;19.23;12.43;;;;;;;8.56;100.00;101114.47;5000090;28;20079;-67
2020/12/17 10:02:43;;;;;;;21.92;12.50;;;;;;;8.61;100.00;101117.63;5014660;28;20061;-66
2020/12/17 10:05:27;;;;;;;18.75;11.40;;;;;;;8.67;100.00;101123.34;5014789;28;20092;-67
2020/12/17 10:08:11;;;;;;;16.02;11.70;;;;;;;8.70;100.00;101117.81;5000004;28;20124;-66
2020/12/17 10:10:55;;;;;;;17.33;11.68;;;;;;;8.72;100.00;101126.53;5014570;28;20079;-67
2020/12/17 10:13:39;;;;;;;15.35;11.35;;;;;;;8.76;100.00;101135.97;5014681;28;20176;-67
2020/12/17 10:16:23;;;;;;;17.10;12.15;;;;;;;8.73;100.00;101128.22;5014782;28;20052;-67
2020/12/17 10:19:07;;;;;;;16.67;12.02;;;;;;;8.68;100.00;101129.50;5014364;28;20100;-66
2020/12/17 10:21:51;;;;;;;19.00;11.98;;;;;;;8.68;100.00;101129.50;5014537;28;20052;-67
2020/12/17 10:24:36;;;;;;;;;;;;;;;8.70;100.00;101144.41;5014974;28;20124;-67
2020/12/17 10:27:19;;;;;;;17.00;11.95;;;;;;;8.76;100.00;101135.13;4999227;28;19929;-66
2020/12/17 10:30:04;;;;;;;18.42;11.68;;;;;;;8.76;100.00;101140.44;5014184;28;20173;-67
2020/12/17 10:32:48;;;;;;;18.20;12.10;;;;;;;8.77;100.00;101139.47;4999296;28;20472;-65
2020/12/17 10:35:32;;;;;;;18.10;12.43;;;;;;;8.78;100.00;101149.16;5014300;28;20048;-67
2020/12/17 10:38:16;;;;;;;19.20;11.98;;;;;;;8.74;100.00;101145.00;5014062;28;20119;-65
2020/12/17 10:41:01;;;;;;;21.98;12.15;;;;;;;8.67;100.00;101143.75;4999420;28;20049;-65
2020/12/17 10:43:45;;;;;;;17.13;12.27;;;;;;;8.64;100.00;101146.66;5013960;28;20144;-66
2020/12/17 10:46:31;;;;;;;16.77;12.05;;;;;;;8.57;100.00;101134.75;4999271;28;20060;-67
2020/12/17 10:49:15;;;;;;;17.60;11.73;;;;;;;8.60;100.00;101137.19;4999198;28;20423;-67
2020/12/17 10:52:00;;;;;;;17.77;12.35;;;;;;;8.62;100.00;101145.88;5013868;28;20107;-67
2020/12/17 10:54:44;;;;;;;19.25;12.68;;;;;;;8.73;100.00;101143.31;4999166;28;20045;-67
2020/12/17 10:57:28;;;;;;;16.98;12.10;;;;;;;8.74;100.00;101150.31;5013032;28;20097;-67
2020/12/17 11:00:12;;;;;;;19.35;13.13;;;;;;;8.85;100.00;101153.06;5013909;28;20395;-65
2020/12/17 11:02:56;;;;;;;16.50;11.60;;;;;;;8.85;100.00;101163.72;5013933;28;20048;-65
2020/12/17 11:05:40;;;;;;;18.80;12.07;;;;;;;8.92;100.00;101160.47;4998747;28;20056;-65
2020/12/17 11:08:25;;;;;;;19.63;11.88;;;;;;;8.86;100.00;101160.91;4999056;28;20104;-66
2020/12/17 11:11:11;;;;;;;15.98;11.80;;;;;;;8.80;100.00;101149.88;4985031;28;20410;-64
2020/12/17 11:13:55;;;;;;;17.25;11.30;;;;;;;8.78;100.00;101149.16;5013694;28;20123;-66
2020/12/17 11:16:39;;;;;;;17.55;12.13;;;;;;;8.71;100.00;101161.19;4998589;28;20506;-67
2020/12/17 11:19:23;;;;;;;17.90;12.13;;;;;;;8.73;100.00;101159.25;5013149;28;20182;-67
2020/12/17 11:22:07;;;;;;;19.17;12.00;;;;;;;8.65;100.00;101153.66;5013669;28;20057;-67
2020/12/17 11:24:51;;;;;;;15.07;10.57;;;;;;;8.59;100.00;101154.09;5013615;28;20530;-66
2020/12/17 11:27:36;;;;;;;18.92;11.93;;;;;;;8.59;100.00;101151.44;5013267;28;20069;-67
2020/12/17 11:30:20;;;;;;;22.17;11.55;;;;;;;8.60;100.00;101150.47;5013670;28;20049;-66
2020/12/17 11:33:04;;;;;;;18.17;11.15;;;;;;;8.61;100.00;101154.81;5013480;28;20184;-64
2020/12/17 11:35:48;;;;;;;17.65;11.32;;;;;;;8.61;100.00;101160.16;5013355;28;20049;-67
2020/12/17 11:38:32;;;;;;;17.88;11.88;;;;;;;8.61;100.00;101160.16;5013466;28;20145;-66
2020/12/17 11:41:16;;;;;;;;;;;;;;;8.58;100.00;101166.53;5013589;28;20100;-67
2020/12/17 11:44:01;;;;;;;17.23;11.45;;;;;;;8.64;100.00;101162.59;4998769;28;19972;-67
2020/12/17 11:46:45;;;;;;;21.50;11.65;;;;;;;8.63;100.00;101164.41;5013189;28;20100;-66
2020/12/17 11:49:30;;;;;;;15.02;10.60;;;;;;;8.63;100.00;101158.22;4998423;28;20045;-66
2020/12/17 11:52:15;;;;;;;18.33;12.10;;;;;;;8.63;100.00;101153.78;5013427;28;20084;-69
2020/12/17 11:55:02;;;;;;;17.73;11.77;;;;;;;8.73;100.00;101151.28;4998259;28;20044;-67
2020/12/17 11:57:49;;;;;;;18.98;11.43;;;;;;;8.79;100.00;101150.84;4998248;28;20081;-67
2020/12/17 12:00:33;;;;;;;17.92;11.63;;;;;;;8.83;100.00;101162.94;5013305;28;20100;-67
2020/12/17 12:03:17;;;;;;;17.85;12.55;;;;;;;8.84;100.00;101167.28;5013143;28;20075;-66
2020/12/17 12:06:01;;;;;;;20.90;11.35;;;;;;;8.84;100.00;101161.97;5013061;28;20509;-67
2020/12/17 12:08:45;;;;;;;20.27;12.05;;;;;;;8.85;100.00;101156.56;5013771;28;20051;-66
2020/12/17 12:11:28;;;;;;;20.05;12.52;;;;;;;8.86;100.00;101154.78;5002079;28;20045;-67
2020/12/17 12:14:12;;;;;;;19.13;12.80;;;;;;;8.95;100.00;101154.94;5002161;28;20045;-66
2020/12/17 12:16:57;;;;;;;18.80;11.77;;;;;;;9.01;100.00;101146.50;5016755;28;20052;-66
2020/12/17 12:19:41;;;;;;;18.15;12.38;;;;;;;9.12;100.00;101151.88;5001530;28;20135;-66
2020/12/17 12:22:25;;;;;;;21.83;11.77;;;;;;;9.14;100.00;101157.06;5016800;28;20061;-66
2020/12/17 12:25:09;;;;;;;20.98;12.55;;;;;;;9.26;100.00;101159.69;5001647;28;20077;-66
2020/12/17 12:27:53;;;;;;;;;;;;;;;9.22;100.00;101149.38;5016986;28;20485;-65
2020/12/17 12:30:37;;;;;;;16.20;11.48;;;;;;;9.28;100.00;101147.09;4988018;28;19943;-65
2020/12/17 12:33:21;;;;;;;18.27;12.00;;;;;;;9.27;100.00;101147.22;5016420;28;20468;-67
2020/12/17 12:36:06;;;;;;;17.58;11.75;;;;;;;9.29;100.00;101153.28;5001427;28;20053;-67
2020/12/17 12:38:49;;;;;;;18.85;11.75;;;;;;;9.31;100.00;101148.69;5001541;28;20076;-67